• Join FlightAware (Why Join?)
  • Login
  • US Flag 
03:46AM EDT


 

Airport Tracker/Info


-or-


 

Live Flight TrackerFlight Track Log ✈ N9769H ✈ 26-Apr-2013 ✈ KHAO - KCGI

Flight Track Log - Related Links

Times and Time Zones

All times are in EDT time to prevent confusion due to time zone crossing. See the N9769H flight status page for this flight to view local times or setup timezone preferences in your user account.

Time Position Orientation Groundspeed Altitude Reporting Facility
EDT Latitude Longitude Course Direction KTS MPH feet Rate Location/Type
05:33PM 39.3500 -84.5667 270° West 150 173 1,900  Level Cincinnati TRACON
05:34PM 39.3500 -84.5833 270° West 150 173 1,900 420 Level Cincinnati TRACON
05:35PM 39.3333 -84.6167 237° Southwest 114 131 2,500 600 Climbing Cincinnati TRACON
05:36PM 39.3167 -84.6500 237° Southwest 100 115 3,100 600 Climbing Cincinnati TRACON
05:37PM 39.3000 -84.6833 237° Southwest 99 114 3,800 420 Climbing Cincinnati TRACON
05:38PM 39.3000 -84.7167 270° West 98 113 4,000 120 Climbing Cincinnati TRACON
05:39PM 39.2833 -84.7500 237° Southwest 125 144 4,100  Climbing Cincinnati TRACON
05:40PM 39.2500 -84.7833 218° Southwest 134 154 4,100  Level Cincinnati TRACON
05:41PM 39.2333 -84.8333 247° West 129 148 4,100 -60 Level Cincinnati TRACON
05:42PM 39.2167 -84.8667 237° Southwest 130 150 4,000 -60 Descending Cincinnati TRACON
05:42PM 39.2111 -84.9017 258° West 128 147 4,000  Level Indianapolis Center
05:44PM 39.1942 -84.9431 242° Southwest 127 146 4,000  Level Indianapolis Center
05:45PM 39.1772 -84.9817 240° Southwest 128 147 4,000  Level Indianapolis Center
05:46PM 39.1581 -85.0256 241° Southwest 127 146 4,000  Level Indianapolis Center
05:47PM 39.1422 -85.0631 241° Southwest 128 147 4,100  Climbing Indianapolis Center
05:48PM 39.1222 -85.1050 238° Southwest 135 155 4,100 -60 Level Indianapolis Center
05:49PM 39.1039 -85.1497 242° Southwest 126 145 4,000 -120 Descending Indianapolis Center
05:50PM 39.0867 -85.1892 241° Southwest 126 145 3,900 -60 Descending Indianapolis Center
05:51PM 39.0686 -85.2292 240° Southwest 127 146 3,900  Level Indianapolis Center
05:52PM 39.0519 -85.2686 241° Southwest 126 145 4,000 60 Climbing Indianapolis Center
05:53PM 39.0361 -85.3086 243° Southwest 125 144 4,100  Climbing Indianapolis Center
05:54PM 39.0211 -85.3475 244° Southwest 124 143 4,100  Level Indianapolis Center
05:55PM 39.0031 -85.3944 244° Southwest 124 143 4,100  Level Indianapolis Center
05:56PM 38.9858 -85.4361 242° Southwest 126 145 4,100  Level Indianapolis Center
05:57PM 38.9700 -85.4792 245° Southwest 129 148 4,100 -60 Level Indianapolis Center
05:58PM 38.9539 -85.5233 245° Southwest 132 152 4,000 -60 Descending Indianapolis Center
05:59PM 38.9369 -85.5647 242° Southwest 131 151 4,000  Level Indianapolis Center
06:00PM 38.9214 -85.6081 245° Southwest 132 152 4,000 -60 Level Indianapolis Center
06:01PM 38.9058 -85.6486 244° Southwest 130 150 3,900 -60 Descending Indianapolis Center
06:02PM 38.8875 -85.6956 243° Southwest 128 147 3,900  Level Indianapolis Center
06:03PM 38.8714 -85.7350 242° Southwest 126 145 4,000  Climbing Indianapolis Center
06:04PM 38.8561 -85.7772 245° Southwest 127 146 3,900 -60 Descending Indianapolis Center
06:05PM 38.8414 -85.8194 246° West 128 147 3,900  Level Indianapolis Center
06:06PM 38.8261 -85.8597 244° Southwest 125 144 4,000  Climbing Indianapolis Center
06:07PM 38.8114 -85.8978 244° Southwest 123 142 4,000  Level Indianapolis Center
06:08PM 38.7947 -85.9458 246° West 123 142 4,000  Level Indianapolis Center
06:09PM 38.7811 -85.9867 247° West 125 144 4,100  Climbing Indianapolis Center
06:10PM 38.7664 -86.0278 245° Southwest 125 144 4,000 -60 Descending Indianapolis Center
06:11PM 38.7503 -86.0675 243° Southwest 125 144 4,000  Level Indianapolis Center
06:12PM 38.7347 -86.1086 244° Southwest 127 146 4,000 240 Level Indianapolis Center
06:14PM 38.7181 -86.1461 240° Southwest 123 142 4,600 600 Climbing Indianapolis Center
06:15PM 38.7036 -86.1775 239° Southwest 108 124 5,300 660 Climbing Indianapolis Center
06:16PM 38.6839 -86.2183 238° Southwest 110 127 6,000 300 Climbing Indianapolis Center
06:17PM 38.6683 -86.2561 242° Southwest 117 135 6,000  Level Indianapolis Center
06:18PM 38.6517 -86.2983 243° Southwest 127 146 6,000  Level Indianapolis Center
06:19PM 38.6356 -86.3414 244° Southwest 132 152 6,100  Climbing Indianapolis Center
06:20PM 38.6200 -86.3836 245° Southwest 133 153 6,100  Level Indianapolis Center
06:21PM 38.6039 -86.4258 244° Southwest 131 151 6,100 -60 Level Indianapolis Center
06:22PM 38.5869 -86.4667 242° Southwest 131 151 6,000 -60 Descending Indianapolis Center
06:23PM 38.5667 -86.5164 242° Southwest 131 151 6,000  Level Indianapolis Center
06:24PM 38.5503 -86.5583 243° Southwest 131 151 6,000  Level Indianapolis Center
06:25PM 38.5336 -86.6014 244° Southwest 133 153 6,100  Climbing Indianapolis Center
06:26PM 38.5175 -86.6447 245° Southwest 134 154 6,100  Level Indianapolis Center
06:27PM 38.5031 -86.6867 246° West 131 151 6,200  Climbing Indianapolis Center
06:28PM 38.4864 -86.7278 243° Southwest 130 150 6,100 -120 Descending Indianapolis Center
06:29PM 38.4697 -86.7681 242° Southwest 129 148 6,000 -60 Descending Indianapolis Center
06:30PM 38.4500 -86.8156 242° Southwest 126 145 6,000  Level Indianapolis Center
06:31PM 38.4339 -86.8561 243° Southwest 127 146 6,100  Climbing Indianapolis Center
06:32PM 38.4169 -86.8947 241° Southwest 125 144 6,100  Level Indianapolis Center
06:33PM 38.3994 -86.9328 240° Southwest 124 143 6,100  Level Indianapolis Center
06:34PM 38.3817 -86.9719 240° Southwest 126 145 6,100  Level Indianapolis Center
06:35PM 38.3642 -87.0106 240° Southwest 127 146 6,100 -60 Level Indianapolis Center
06:36PM 38.3417 -87.0575 239° Southwest 128 147 6,000 -60 Descending Indianapolis Center
06:37PM 38.3228 -87.0967 238° Southwest 131 151 6,000  Level Indianapolis Center
06:38PM 38.3031 -87.1358 237° Southwest 133 153 6,100  Climbing Indianapolis Center
06:39PM 38.2836 -87.1750 238° Southwest 132 152 6,000 -60 Descending Indianapolis Center
06:40PM 38.2636 -87.2144 237° Southwest 132 152 6,000  Level Indianapolis Center
06:41PM 38.2444 -87.2606 242° Southwest 128 147 6,100  Climbing Indianapolis Center
06:42PM 38.2294 -87.2989 244° Southwest 123 142 6,100 -60 Level Indianapolis Center
06:43PM 38.2136 -87.3378 243° Southwest 123 142 6,000 -60 Descending Indianapolis Center
06:45PM 38.1975 -87.3775 243° Southwest 124 143 6,000  Level Indianapolis Center
06:46PM 38.1814 -87.4167 242° Southwest 124 143 6,000  Level Indianapolis Center
06:47PM 38.1650 -87.4550 241° Southwest 124 143 6,000  Level Indianapolis Center
06:48PM 38.1486 -87.4944 242° Southwest 124 143 6,000 -60 Level Indianapolis Center
06:49PM 38.1292 -87.5389 241° Southwest 122 140 5,900  Descending Indianapolis Center
06:50PM 38.1119 -87.5753 239° Southwest 121 139 6,000  Climbing Indianapolis Center
06:51PM 38.0936 -87.6119 238° Southwest 121 139 6,000  Level Indianapolis Center
06:52PM 38.0756 -87.6486 238° Southwest 121 139 6,000  Level Indianapolis Center
06:53PM 38.0578 -87.6850 238° Southwest 121 139 6,000  Level Indianapolis Center
06:54PM 38.0406 -87.7214 239° Southwest 121 139 6,100  Climbing Indianapolis Center
06:55PM 38.0239 -87.7592 241° Southwest 121 139 6,100  Level Indianapolis Center
06:56PM 38.0067 -87.8053 245° Southwest 120 138 6,100  Level Indianapolis Center
06:57PM 37.9917 -87.8431 243° Southwest 120 138 6,200  Climbing Indianapolis Center
06:58PM 37.9769 -87.8814 244° Southwest 121 139 6,200  Level Indianapolis Center
06:59PM 37.9628 -87.9197 245° Southwest 120 138 6,200 -60 Level Indianapolis Center
07:00PM 37.9481 -87.9600 245° Southwest 123 142 6,100 -120 Descending Indianapolis Center
07:01PM 37.9322 -87.9994 243° Southwest 124 143 6,000 -60 Descending Indianapolis Center
07:02PM 37.9158 -88.0392 242° Southwest 126 145 6,000  Level Indianapolis Center
07:03PM 37.9000 -88.0789 243° Southwest 126 145 6,000  Level Indianapolis Center
07:04PM 37.8800 -88.1261 242° Southwest 127 146 6,000  Level Indianapolis Center
07:05PM 37.8619 -88.1656 240° Southwest 128 147 6,000  Level Indianapolis Center
07:06PM 37.8444 -88.2039 240° Southwest 127 146 6,100  Climbing Indianapolis Center
07:07PM 37.8283 -88.2433 243° Southwest 127 146 6,100  Level Indianapolis Center
07:08PM 37.8103 -88.2814 239° Southwest 126 145 6,100  Level Indianapolis Center
07:09PM 37.7931 -88.3186 240° Southwest 125 144 6,100  Level Indianapolis Center
07:10PM 37.7731 -88.3550 235° Southwest 124 143 6,100  Level Indianapolis Center
07:11PM 37.7528 -88.3900 234° Southwest 124 143 6,100 -60 Level Indianapolis Center
07:12PM 37.7319 -88.4353 240° Southwest 123 142 6,000 -60 Descending Indianapolis Center
07:13PM 37.7175 -88.4722 244° Southwest 123 142 6,000  Level Memphis Center
07:14PM 37.7014 -88.5119 243° Southwest 123 142 6,000  Level Memphis Center
07:15PM 37.6833 -88.5542 242° Southwest 140 161 6,100  Climbing Memphis Center
07:17PM 37.6628 -88.5925 236° Southwest 122 140 6,100 -60 Level Kansas City Center
07:18PM 37.6464 -88.6303 241° Southwest 123 142 6,000 -60 Descending Kansas City Center
07:19PM 37.6283 -88.6656 237° Southwest 121 139 6,000  Level Kansas City Center
07:19PM 37.6144 -88.7050 246° West 124 143 6,100  Climbing Memphis Center
07:20PM 37.5983 -88.7419 241° Southwest 124 143 6,100  Level Memphis Center
07:21PM 37.5800 -88.7686 229° Southwest 119 137 6,100  Level Memphis Center
07:22PM 37.5639 -88.8081 243° Southwest 119 137 6,100  Level Memphis Center
07:23PM 37.5478 -88.8478 243° Southwest 125 144 6,100  Level Memphis Center
07:24PM 37.5336 -88.8819 242° Southwest 125 144 6,100 -60 Level Memphis Center
07:25PM 37.5172 -88.9164 239° Southwest 120 138 6,000  Descending Memphis Center
07:26PM 37.5011 -88.9531 241° Southwest 120 138 6,100 -60 Climbing Memphis Center
07:27PM 37.4869 -88.9978 248° West 128 147 5,900 -420 Descending Memphis Center
07:28PM 37.4728 -89.0319 242° Southwest 128 147 5,300 -600 Descending Memphis Center
07:29PM 37.4586 -89.0714 246° West 133 153 4,700 -600 Descending Memphis Center
07:30PM 37.4422 -89.1083 241° Southwest 139 160 4,100 -600 Descending Memphis Center
07:31PM 37.4319 -89.1275 236° Southwest 130 150 3,700 -720 Descending Kansas City Center
07:32PM 37.4081 -89.1731 237° Southwest 131 151 2,900 -600 Descending Kansas City Center
07:33PM 37.3894 -89.2139 240° Southwest 132 152 2,600 -120 Descending Kansas City Center
07:34PM 37.3711 -89.2517 239° Southwest 131 151 2,700 60 Climbing Kansas City Center
07:34PM 37.3667 -89.2661 249° West 134 154 2,700  Level Memphis Center
07:35PM 37.3503 -89.3056 242° Southwest 129 148 2,700 -60 Level Memphis Center
07:36PM 37.3339 -89.3397 239° Southwest 129 148 2,600  Descending Memphis Center
07:37PM 37.3156 -89.3736 236° Southwest 123 142 2,700 60 Climbing Memphis Center